createdAt,value
2017-10-21T00:01:38.290Z,3.07
2017-10-21T00:04:09.932Z,2.73
2017-10-21T00:06:41.541Z,3.07
2017-10-21T00:09:13.454Z,3.60
2017-10-21T00:11:44.856Z,3.40
2017-10-21T00:14:16.663Z,3.93
2017-10-21T00:16:48.298Z,4.93
2017-10-21T00:19:21.591Z,3.60
2017-10-21T00:21:53.246Z,4.20
2017-10-21T00:24:26.101Z,4.63
2017-10-21T00:26:57.479Z,4.07
2017-10-21T00:29:28.893Z,3.40
2017-10-21T00:32:00.319Z,3.57
2017-10-21T00:34:31.677Z,2.77
2017-10-21T00:37:04.226Z,3.07
2017-10-21T00:39:35.544Z,2.40
2017-10-21T00:42:07.043Z,3.47
2017-10-21T00:44:38.609Z,3.23
2017-10-21T00:47:10.680Z,3.10
2017-10-21T00:49:42.025Z,2.63
2017-10-21T00:52:13.623Z,2.70
2017-10-21T00:54:45.263Z,2.10
2017-10-21T00:57:16.898Z,1.97
2017-10-21T00:59:48.292Z,3.30
2017-10-21T01:02:20.522Z,2.80
2017-10-21T01:04:52.233Z,3.23
2017-10-21T01:07:25.697Z,2.70
2017-10-21T01:09:57.074Z,2.87
2017-10-21T01:12:29.149Z,2.97
2017-10-21T01:15:00.913Z,2.70
2017-10-21T01:17:32.934Z,2.60
2017-10-21T01:20:08.548Z,2.00
2017-10-21T01:22:40.125Z,2.70
2017-10-21T01:25:11.937Z,2.60
2017-10-21T01:27:43.789Z,2.30
2017-10-21T01:30:15.774Z,2.50
2017-10-21T01:32:47.547Z,2.33
2017-10-21T01:35:20.091Z,2.67
2017-10-21T01:37:52.189Z,2.70
2017-10-21T01:43:29.464Z,2.07
2017-10-21T01:46:02.972Z,2.90
2017-10-21T01:48:34.340Z,2.47
2017-10-21T01:51:06.213Z,2.70
2017-10-21T01:56:16.651Z,2.33
2017-10-21T01:58:48.504Z,2.70
2017-10-21T02:01:21.041Z,2.80
2017-10-21T02:03:52.406Z,2.50
2017-10-21T02:06:25.186Z,2.87
2017-10-21T02:08:56.550Z,2.70
2017-10-21T02:11:28.219Z,2.83
2017-10-21T02:13:59.573Z,3.00
2017-10-21T02:16:30.959Z,2.27
2017-10-21T02:19:02.980Z,2.30
2017-10-21T02:21:34.350Z,1.63
2017-10-21T02:24:07.220Z,3.67
2017-10-21T02:26:39.352Z,3.40
2017-10-21T02:29:10.700Z,3.20
2017-10-21T02:31:42.215Z,2.80
2017-10-21T02:34:14.494Z,3.20
2017-10-21T02:36:45.960Z,1.90
2017-10-21T02:39:19.469Z,3.47
2017-10-21T02:41:50.843Z,3.40
2017-10-21T02:44:22.752Z,3.90
2017-10-21T02:46:54.687Z,2.90
2017-10-21T02:49:26.023Z,4.27
2017-10-21T02:51:57.359Z,4.20
2017-10-21T02:54:28.672Z,4.47
2017-10-21T02:57:00.586Z,3.43
2017-10-21T02:59:31.880Z,4.03
2017-10-21T03:02:04.363Z,4.10
2017-10-21T03:04:35.689Z,3.37
2017-10-21T03:07:07.358Z,2.90
2017-10-21T03:09:38.683Z,3.80
2017-10-21T03:12:10.014Z,3.00
2017-10-21T03:14:42.158Z,4.23
2017-10-21T03:17:13.501Z,3.40
2017-10-21T03:19:44.816Z,3.50
2017-10-21T03:22:17.491Z,2.53
2017-10-21T03:24:48.811Z,2.30
2017-10-21T03:27:21.266Z,2.20
2017-10-21T03:29:52.560Z,2.40
2017-10-21T03:32:23.853Z,2.87
2017-10-21T03:34:55.513Z,3.23
2017-10-21T03:37:26.885Z,3.10
2017-10-21T03:39:58.286Z,2.43
2017-10-21T03:42:29.581Z,3.10
2017-10-21T03:45:01.001Z,2.90
2017-10-21T03:47:32.879Z,2.17
2017-10-21T03:50:05.260Z,2.43
2017-10-21T03:52:36.574Z,2.80
2017-10-21T03:55:08.398Z,2.90
2017-10-21T03:57:40.048Z,4.17
2017-10-21T04:00:11.489Z,2.70
2017-10-21T04:02:42.951Z,4.00
2017-10-21T04:05:14.831Z,2.30
2017-10-21T04:07:46.310Z,3.90
2017-10-21T04:10:19.734Z,2.60
2017-10-21T04:12:51.137Z,3.53
2017-10-21T04:15:23.166Z,3.50
2017-10-21T04:18:05.277Z,11.97
2017-10-21T04:20:37.229Z,10.00
2017-10-21T04:23:08.533Z,3.83
2017-10-21T04:28:15.085Z,3.30
2017-10-21T04:30:47.254Z,2.97
2017-10-21T04:33:21.832Z,3.87
2017-10-21T04:35:53.804Z,2.97
2017-10-21T04:38:25.265Z,3.10
2017-10-21T04:40:56.562Z,3.83
2017-10-21T04:43:30.858Z,4.47
2017-10-21T04:46:07.501Z,3.33
2017-10-21T04:48:39.026Z,3.53
2017-10-21T04:51:10.544Z,3.20
2017-10-21T04:53:44.439Z,3.20
2017-10-21T04:56:18.211Z,3.10
2017-10-21T04:58:54.119Z,3.20
2017-10-21T05:01:27.140Z,3.20
2017-10-21T05:03:58.558Z,2.60
2017-10-21T05:09:24.497Z,2.90
2017-10-21T05:12:10.070Z,3.00
2017-10-21T05:14:42.637Z,3.47
2017-10-21T05:17:14.035Z,3.17
2017-10-21T05:19:45.646Z,3.83
2017-10-21T05:22:16.986Z,3.70
2017-10-21T05:24:48.251Z,3.53
2017-10-21T05:27:20.725Z,4.07
2017-10-21T05:29:51.981Z,4.90
2017-10-21T05:32:23.055Z,5.13
2017-10-21T05:34:58.947Z,4.50
2017-10-21T05:37:32.972Z,5.60
2017-10-21T05:40:05.626Z,6.80
2017-10-21T05:42:37.485Z,4.90
2017-10-21T05:45:08.745Z,5.90
2017-10-21T05:47:40.023Z,6.40
2017-10-21T05:50:12.359Z,5.93
2017-10-21T05:52:45.450Z,6.40
2017-10-21T05:55:16.926Z,6.00
2017-10-21T05:57:51.460Z,4.93
2017-10-21T06:00:22.858Z,5.80
2017-10-21T06:02:54.692Z,5.17
2017-10-21T06:05:26.572Z,4.93
2017-10-21T06:07:57.960Z,5.57
2017-10-21T06:10:29.717Z,4.80
2017-10-21T06:13:02.318Z,5.60
2017-10-21T06:15:36.403Z,5.30
2017-10-21T06:18:07.646Z,4.53
2017-10-21T06:20:38.938Z,4.50
2017-10-21T06:23:10.540Z,5.07
2017-10-21T06:25:42.070Z,4.40
2017-10-21T06:28:14.434Z,4.13
2017-10-21T06:30:45.651Z,3.80
2017-10-21T06:33:17.301Z,4.53
2017-10-21T06:35:50.036Z,5.40
2017-10-21T06:38:21.547Z,3.90
2017-10-21T06:40:54.015Z,3.10
2017-10-21T06:43:25.329Z,3.77
2017-10-21T06:45:57.105Z,3.60
2017-10-21T06:48:32.015Z,3.70
2017-10-21T06:51:04.104Z,3.80
2017-10-21T06:53:36.531Z,3.13
2017-10-21T06:57:11.536Z,4.27
2017-10-21T06:59:44.142Z,4.70
2017-10-21T07:02:16.251Z,3.67
2017-10-21T07:04:47.852Z,3.70
2017-10-21T07:07:20.112Z,3.83
2017-10-21T07:09:51.953Z,3.30
2017-10-21T07:12:23.550Z,3.90
2017-10-21T07:14:54.839Z,4.50
2017-10-21T07:17:26.405Z,3.83
2017-10-21T07:19:58.303Z,5.10
2017-10-21T07:22:30.919Z,3.80
2017-10-21T07:25:03.241Z,6.70
2017-10-21T07:27:35.952Z,5.70
2017-10-21T07:30:08.381Z,5.60
2017-10-21T07:32:41.451Z,6.57
2017-10-21T07:35:14.042Z,5.70
2017-10-21T07:37:46.406Z,5.23
2017-10-21T07:40:18.618Z,5.47
2017-10-21T07:42:51.361Z,5.27
2017-10-21T07:45:22.611Z,4.57
2017-10-21T07:47:53.897Z,5.30
2017-10-21T07:54:00.477Z,6.50
2017-10-21T07:56:33.500Z,5.83
2017-10-21T07:59:05.456Z,7.27
2017-10-21T08:01:36.850Z,7.90
2017-10-21T08:04:08.660Z,7.00
2017-10-21T08:06:40.156Z,6.97
2017-10-21T08:09:25.254Z,6.13
2017-10-21T08:11:56.661Z,6.70
2017-10-21T08:14:30.325Z,6.20
2017-10-21T08:17:02.091Z,7.80
2017-10-21T08:19:35.228Z,7.20
2017-10-21T08:22:06.697Z,7.33
2017-10-21T08:24:38.250Z,9.07
2017-10-21T08:27:09.977Z,7.80
2017-10-21T08:29:41.264Z,8.20
2017-10-21T08:32:12.965Z,8.83
2017-10-21T08:34:44.833Z,8.80
2017-10-21T08:37:17.359Z,9.70
2017-10-21T08:39:48.716Z,8.30
2017-10-21T08:42:20.611Z,7.73
2017-10-21T08:44:51.970Z,9.03
2017-10-21T08:47:23.546Z,9.07
2017-10-21T08:49:55.258Z,9.40
2017-10-21T08:52:26.701Z,8.73
2017-10-21T08:54:59.284Z,9.30
2017-10-21T08:57:33.657Z,10.07
2017-10-21T09:00:06.757Z,9.97
2017-10-21T09:02:46.797Z,9.70
2017-10-21T09:05:20.152Z,8.80
2017-10-21T09:07:53.079Z,7.60
2017-10-21T09:13:29.759Z,9.77
2017-10-21T09:16:03.000Z,8.80
2017-10-21T09:18:34.426Z,9.83
2017-10-21T09:21:06.229Z,10.00
2017-10-21T09:23:37.727Z,9.47
2017-10-21T09:30:19.436Z,8.50
2017-10-21T09:33:11.838Z,9.20
2017-10-21T09:35:57.971Z,9.47
2017-10-21T09:41:35.641Z,7.70
2017-10-21T09:44:16.132Z,8.57
2017-10-21T09:46:59.821Z,7.57
2017-10-21T09:49:43.863Z,7.70
2017-10-21T09:52:32.956Z,6.90
2017-10-21T09:55:22.743Z,7.67
2017-10-21T10:00:44.559Z,6.67
2017-10-21T10:03:17.744Z,6.70
2017-10-21T10:05:49.099Z,7.50
2017-10-21T10:08:23.134Z,6.93
2017-10-21T10:10:54.801Z,5.87
2017-10-21T10:13:26.643Z,7.10
2017-10-21T10:15:59.013Z,6.80
2017-10-21T10:18:30.407Z,6.30
2017-10-21T10:21:02.501Z,6.90
2017-10-21T10:23:34.230Z,6.53
2017-10-21T10:26:12.152Z,6.80
2017-10-21T10:28:43.489Z,5.73
2017-10-21T10:31:15.901Z,5.90
2017-10-21T10:33:47.278Z,7.83
2017-10-21T10:36:23.293Z,6.07
2017-10-21T10:38:54.636Z,7.00
2017-10-21T10:41:26.000Z,8.80
2017-10-21T10:43:57.593Z,8.30
2017-10-21T10:46:28.993Z,8.20
2017-10-21T10:49:00.391Z,8.63
2017-10-21T10:51:32.064Z,8.63
2017-10-21T10:54:07.647Z,8.27
2017-10-21T10:56:39.000Z,10.53
2017-10-21T10:59:10.331Z,7.63
2017-10-21T11:01:42.268Z,7.77
2017-10-21T11:04:13.870Z,7.20
2017-10-21T11:06:45.405Z,7.10
2017-10-21T11:11:47.101Z,10.03
2017-10-21T11:14:20.181Z,8.70
2017-10-21T11:16:51.558Z,6.57
2017-10-21T11:19:23.048Z,10.30
2017-10-21T11:21:54.927Z,9.83
2017-10-21T11:24:26.770Z,9.10
2017-10-21T11:26:58.204Z,10.33
2017-10-21T11:29:29.601Z,8.10
2017-10-21T11:32:01.604Z,7.63
2017-10-21T11:34:34.079Z,7.83
2017-10-21T11:37:05.855Z,9.60
2017-10-21T11:39:37.430Z,8.50
2017-10-21T11:42:11.984Z,9.53
2017-10-21T11:44:45.524Z,8.80
2017-10-21T11:47:18.404Z,8.57
2017-10-21T11:49:49.823Z,7.90
2017-10-21T11:52:22.450Z,8.57
2017-10-21T11:54:54.021Z,7.87
2017-10-21T11:57:25.410Z,7.67
2017-10-21T11:59:57.152Z,6.10
2017-10-21T12:02:31.446Z,7.20
2017-10-21T12:05:03.498Z,6.70
2017-10-21T12:07:35.889Z,5.33
2017-10-21T12:10:08.309Z,6.50
2017-10-21T12:12:40.100Z,6.60
2017-10-21T12:15:11.951Z,6.50
2017-10-21T12:17:43.935Z,7.43
2017-10-21T12:20:17.887Z,6.73
2017-10-21T12:22:49.662Z,6.30
2017-10-21T12:25:21.814Z,6.70
2017-10-21T12:27:53.473Z,7.70
2017-10-21T12:30:26.923Z,6.10
2017-10-21T12:32:58.410Z,6.23
2017-10-21T12:35:30.016Z,6.60
2017-10-21T12:38:02.862Z,6.60
2017-10-21T12:40:35.608Z,7.20
2017-10-21T12:43:07.065Z,6.33
2017-10-21T12:45:39.714Z,5.60
2017-10-21T12:48:13.912Z,6.20
2017-10-21T12:50:46.858Z,6.53
2017-10-21T12:53:20.031Z,5.43
2017-10-21T12:55:52.179Z,5.17
2017-10-21T12:58:25.146Z,5.23
2017-10-21T13:00:56.684Z,5.60
2017-10-21T13:03:28.472Z,5.13
2017-10-21T13:06:00.172Z,5.10
2017-10-21T13:08:31.834Z,4.93
2017-10-21T13:11:05.112Z,4.73
2017-10-21T13:13:36.629Z,3.90
2017-10-21T13:16:09.087Z,4.70
2017-10-21T13:21:39.622Z,3.50
2017-10-21T13:27:16.374Z,3.20
2017-10-21T13:29:47.712Z,3.07
2017-10-21T13:32:19.546Z,4.70
2017-10-21T13:34:50.862Z,3.70
2017-10-21T13:37:22.497Z,3.60
2017-10-21T13:39:55.580Z,3.53
2017-10-21T13:42:27.693Z,3.07
2017-10-21T13:44:59.946Z,4.30
2017-10-21T13:47:34.138Z,3.73
2017-10-21T13:53:34.352Z,4.17
2017-10-21T13:56:12.411Z,3.73
2017-10-21T13:58:45.211Z,3.30
2017-10-21T14:01:18.642Z,3.60
2017-10-21T14:03:51.009Z,3.70
2017-10-21T14:09:17.355Z,4.00
2017-10-21T14:11:49.285Z,3.30
2017-10-21T14:14:20.847Z,3.23
2017-10-21T14:16:52.069Z,3.93
2017-10-21T14:19:23.462Z,4.17
2017-10-21T14:21:55.193Z,3.20
2017-10-21T14:24:26.676Z,3.00
2017-10-21T14:26:58.544Z,3.33
2017-10-21T14:29:30.533Z,3.33
2017-10-21T14:32:03.395Z,2.87
2017-10-21T14:34:35.397Z,2.83
2017-10-21T14:37:06.760Z,2.80
2017-10-21T14:39:38.650Z,2.53
2017-10-21T14:42:10.943Z,2.50
2017-10-21T14:44:46.629Z,2.77
2017-10-21T14:53:14.267Z,2.20
2017-10-21T14:58:50.541Z,2.57
2017-10-21T15:01:25.477Z,3.40
2017-10-21T15:03:58.031Z,3.07
2017-10-21T15:06:29.537Z,3.30
2017-10-21T15:09:02.198Z,3.00
2017-10-21T15:11:33.939Z,3.20
2017-10-21T15:14:07.820Z,3.00
2017-10-21T15:16:41.840Z,3.63
2017-10-21T15:19:17.193Z,2.27
2017-10-21T15:21:48.616Z,2.83
2017-10-21T15:24:22.724Z,2.33
2017-10-21T15:26:54.250Z,2.47
2017-10-21T15:29:26.041Z,2.60
2017-10-21T15:31:57.453Z,2.50
2017-10-21T15:34:29.737Z,2.53
2017-10-21T15:37:02.543Z,2.90
2017-10-21T15:39:33.944Z,2.63
2017-10-21T15:42:07.459Z,1.83
2017-10-21T15:44:39.606Z,1.83
2017-10-21T15:47:11.175Z,1.90
2017-10-21T15:49:44.958Z,2.07
2017-10-21T15:52:16.621Z,2.30
2017-10-21T15:54:48.250Z,2.33
2017-10-21T15:57:20.785Z,2.40
2017-10-21T15:59:53.099Z,2.00
2017-10-21T16:02:25.572Z,2.10
2017-10-21T16:04:57.048Z,2.23
2017-10-21T16:07:28.685Z,2.13
2017-10-21T16:10:00.068Z,2.60
2017-10-21T16:12:31.460Z,2.40
2017-10-21T16:15:03.646Z,2.57
2017-10-21T16:17:34.965Z,2.10
2017-10-21T16:20:06.539Z,2.83
2017-10-21T16:22:38.547Z,2.30
2017-10-21T16:25:14.106Z,2.03
2017-10-21T16:27:46.945Z,2.00
2017-10-21T16:30:18.724Z,1.80
2017-10-21T16:32:50.802Z,2.57
2017-10-21T16:35:22.306Z,1.53
2017-10-21T16:37:53.540Z,2.63
2017-10-21T16:40:25.450Z,2.27
2017-10-21T16:42:56.831Z,2.10
2017-10-21T16:45:28.095Z,2.00
2017-10-21T16:47:59.764Z,2.30
2017-10-21T16:50:31.322Z,2.10
2017-10-21T16:53:11.871Z,1.90
2017-10-21T16:55:43.622Z,2.93
2017-10-21T16:58:21.534Z,2.23
2017-10-21T17:00:53.034Z,2.20
2017-10-21T17:03:24.395Z,2.30
2017-10-21T17:05:56.001Z,1.60
2017-10-21T17:08:27.370Z,2.40
2017-10-21T17:10:58.781Z,1.37
2017-10-21T17:13:30.457Z,2.03
2017-10-21T17:16:03.226Z,1.63
2017-10-21T17:18:34.703Z,2.03
2017-10-21T17:24:22.373Z,2.87
2017-10-21T17:36:34.631Z,2.00
2017-10-21T17:39:07.223Z,1.70
2017-10-21T17:41:38.688Z,1.93
2017-10-21T17:44:12.172Z,2.27
2017-10-21T17:46:44.757Z,2.13
2017-10-21T17:49:17.166Z,2.00
2017-10-21T17:51:51.687Z,1.83
2017-10-21T17:54:23.050Z,1.73
2017-10-21T17:56:54.673Z,1.90
2017-10-21T17:59:26.920Z,1.90
2017-10-21T18:02:09.144Z,2.23
2017-10-21T18:04:45.379Z,1.80
2017-10-21T18:07:19.992Z,1.70
2017-10-21T18:09:51.693Z,1.73
2017-10-21T18:12:23.928Z,2.03
2017-10-21T18:14:55.703Z,1.90
2017-10-21T18:17:28.011Z,2.27
2017-10-21T18:20:09.559Z,2.97
2017-10-21T18:22:41.512Z,1.93
2017-10-21T18:25:13.306Z,2.50
2017-10-21T18:27:46.008Z,2.87
2017-10-21T18:30:21.111Z,2.80
2017-10-21T18:35:57.416Z,3.93
2017-10-21T18:41:36.965Z,2.97
2017-10-21T18:44:19.743Z,2.30
2017-10-21T18:47:13.646Z,3.00
2017-10-21T18:49:52.082Z,2.07
2017-10-21T18:52:35.885Z,1.80
2017-10-21T18:56:28.467Z,2.17
2017-10-21T18:59:15.647Z,2.70
2017-10-21T19:02:00.787Z,2.30
2017-10-21T19:04:40.872Z,2.17
2017-10-21T19:07:14.885Z,2.10
2017-10-21T19:26:53.888Z,2.57
2017-10-21T19:29:25.549Z,2.43
2017-10-21T19:31:56.919Z,2.80
2017-10-21T19:34:28.637Z,2.83
2017-10-21T19:36:59.993Z,3.27
2017-10-21T19:39:31.332Z,2.40
2017-10-21T19:42:04.696Z,4.30
2017-10-21T19:44:36.307Z,3.47
2017-10-21T19:47:07.991Z,2.63
2017-10-21T19:49:40.400Z,2.70
2017-10-21T19:52:11.778Z,1.97
2017-10-21T19:54:43.390Z,2.63
2017-10-21T19:57:15.812Z,2.40
2017-10-21T19:59:47.223Z,2.30
2017-10-21T20:02:22.297Z,2.93
2017-10-21T20:04:54.559Z,2.53
2017-10-21T20:07:27.100Z,2.43
2017-10-21T20:09:58.689Z,2.47
2017-10-21T20:12:30.820Z,2.70
2017-10-21T20:15:03.399Z,2.27
2017-10-21T20:17:34.899Z,2.60
2017-10-21T20:20:06.700Z,2.00
2017-10-21T20:22:41.885Z,3.07
2017-10-21T20:25:14.587Z,2.10
2017-10-21T20:27:52.624Z,2.93
2017-10-21T20:30:26.024Z,2.00
2017-10-21T20:32:57.832Z,2.27
2017-10-21T20:35:29.903Z,2.43
2017-10-21T20:38:03.054Z,2.30
2017-10-21T20:40:35.045Z,2.33
2017-10-21T20:43:07.667Z,1.93
2017-10-21T20:45:43.089Z,1.90
2017-10-21T20:48:18.792Z,1.90
2017-10-21T20:50:51.033Z,1.50
2017-10-21T20:56:00.452Z,2.70
2017-10-21T20:58:32.488Z,2.63
2017-10-21T21:01:04.372Z,2.63
2017-10-21T21:03:37.919Z,1.97
2017-10-21T21:06:11.106Z,2.83
2017-10-21T21:08:45.804Z,1.80
2017-10-21T21:11:20.909Z,2.50
2017-10-21T21:13:52.909Z,3.40
2017-10-21T21:16:25.889Z,2.50
2017-10-21T21:18:57.804Z,2.20
2017-10-21T21:21:29.780Z,2.07
2017-10-21T21:24:03.064Z,3.10
2017-10-21T21:26:34.814Z,2.60
2017-10-21T21:29:06.651Z,1.90
2017-10-21T21:31:38.453Z,2.17
2017-10-21T21:34:11.209Z,2.00
2017-10-21T21:36:44.218Z,2.03
2017-10-21T21:39:16.537Z,1.97
2017-10-21T21:41:48.508Z,2.10
2017-10-21T21:44:23.741Z,2.00
2017-10-21T21:46:55.648Z,2.20
2017-10-21T21:49:31.032Z,2.10
2017-10-21T21:52:04.765Z,2.27
2017-10-21T21:54:39.533Z,3.40
2017-10-21T21:57:11.348Z,1.77
2017-10-21T21:59:43.198Z,2.13
2017-10-21T22:02:45.924Z,2.40
2017-10-21T22:05:19.009Z,1.73
2017-10-21T22:07:52.328Z,3.03
2017-10-21T22:10:24.825Z,2.23
2017-10-21T22:12:56.686Z,2.70
2017-10-21T22:15:29.361Z,2.40
2017-10-21T22:18:01.702Z,2.33
2017-10-21T22:20:33.280Z,2.57
2017-10-21T22:23:04.765Z,2.60
2017-10-21T22:25:36.081Z,2.30
2017-10-21T22:28:08.088Z,2.20
2017-10-21T22:30:39.493Z,2.57
2017-10-21T22:33:10.837Z,2.63
2017-10-21T22:35:44.289Z,1.90
2017-10-21T22:38:15.620Z,3.00
2017-10-21T22:40:47.008Z,2.43
2017-10-21T22:43:19.622Z,2.37
2017-10-21T22:45:51.090Z,2.07
2017-10-21T22:48:23.212Z,2.73
2017-10-21T22:50:54.540Z,2.80
2017-10-21T22:53:25.889Z,2.43
2017-10-21T22:55:57.476Z,2.37
2017-10-21T22:58:29.609Z,2.30
2017-10-21T23:01:01.436Z,2.57
2017-10-21T23:03:34.436Z,2.20
2017-10-21T23:06:06.430Z,2.50
2017-10-21T23:08:38.024Z,2.70
2017-10-21T23:11:09.587Z,2.20
2017-10-21T23:13:42.780Z,2.70
2017-10-21T23:16:14.460Z,2.50
2017-10-21T23:18:45.855Z,2.30
2017-10-21T23:21:19.822Z,2.40
2017-10-21T23:23:51.319Z,2.40
2017-10-21T23:26:24.240Z,2.70
2017-10-21T23:28:55.852Z,2.50
2017-10-21T23:31:27.302Z,2.00
2017-10-21T23:33:58.936Z,2.73
2017-10-21T23:36:30.306Z,2.83
2017-10-21T23:39:02.193Z,2.90
2017-10-21T23:41:34.453Z,2.00
2017-10-21T23:44:06.430Z,2.50
2017-10-21T23:46:38.052Z,3.00
2017-10-21T23:49:09.365Z,3.13
2017-10-21T23:51:40.870Z,1.63
2017-10-21T23:54:13.055Z,2.50
2017-10-21T23:56:44.428Z,2.67
2017-10-21T23:59:15.775Z,2.13
